Terminal Aerodrome Forecast
Issued by NWS Caribou, ME

Home | Current Version | Previous Version | Text Only | Print | Product List | Glossary On
Versions: 1 2 3 4 5 6 7 8 9 10 11 12 13 14 15 16 17 18 19 20 21 22 23 24 25 26 27 28 29 30 31
183
FTUS41 KCAR 281913 AAD
TAFBGR
TAF AMD
KBGR 281913Z 2819/2918 20004KT P6SM VCTS SCT020 OVC050CB
     FM282000 20004KT P6SM VCTS BKN050CB
     FM290200 23004KT 2SM BR SCT003
     FM290800 00000KT P6SM BKN100
     FM291000 00000KT P6SM OVC100
     FM291500 23006KT P6SM -SHRA OVC060=

USA.gov is the U.S. government's official web portal to all federal, state and local government web resources and services.